Time;durP1;ratioP1;P1;durP2;ratioP2;P2;SDS_P1;SDS_P2;PMS_P1;PMS_P2;Temp;Humidity;BMP_temperature;BMP_pressure;BME280_temperature;BME280_humidity;BME280_pressure;Samples;Min_cycle;Max_cycle;Signal;HPM_P1;HPM_P2
2022/04/11 00:02:00;;;;;;;8.53;7.37;;;1.10;89.20;;;-0.54;85.93;98447.22;5047979;28;20451;-74
2022/04/11 00:04:27;;;;;;;9.60;7.40;;;1.10;88.90;;;-0.55;85.96;98460.63;5049073;28;20472;-73
2022/04/11 00:06:55;;;;;;;7.97;7.17;;;1.10;89.50;;;-0.69;86.40;98441.41;5052012;28;20456;-73
2022/04/11 00:09:22;;;;;;;8.73;7.13;;;1.00;89.40;;;-0.63;86.20;98453.31;5043926;28;20504;-74
2022/04/11 00:11:50;;;;;;;7.80;7.10;;;1.00;89.90;;;-0.65;86.59;98452.63;5055393;28;20486;-73
2022/04/11 00:14:17;;;;;;;8.50;7.60;;;1.00;89.70;;;-0.71;86.60;98446.03;5043525;28;20542;-76
2022/04/11 00:16:44;;;;;;;8.83;6.80;;;0.90;90.50;;;-0.76;86.77;98442.94;5045227;28;20927;-75
2022/04/11 00:19:11;;;;;;;8.60;7.70;;;0.90;90.60;;;-0.79;86.69;98449.34;5047585;28;20442;-75
2022/04/11 00:21:38;;;;;;;8.80;7.07;;;0.90;90.50;;;-0.78;86.96;98439.56;5045621;28;20455;-74
2022/04/11 00:24:07;;;;;;;13.67;8.30;;;0.80;91.10;;;-0.80;87.38;98452.97;5041022;28;20457;-73
2022/04/11 00:26:35;;;;;;;9.77;7.57;;;0.80;90.60;;;-0.78;87.42;98450.19;5040066;28;20500;-73
2022/04/11 00:29:02;;;;;;;12.60;6.77;;;0.80;91.10;;;-0.84;87.09;98448.91;5057937;28;20537;-74
2022/04/11 00:31:29;;;;;;;11.50;7.70;;;0.70;91.10;;;-0.75;87.49;98444.63;5037459;28;23378;-73
2022/04/11 00:33:57;;;;;;;9.60;6.63;;;0.80;92.00;;;-0.79;87.62;98438.72;5058582;28;20456;-73
2022/04/11 00:36:24;;;;;;;9.10;6.33;;;0.80;91.70;;;-0.84;87.48;98440.94;5037609;28;20518;-73
2022/04/11 00:38:51;;;;;;;11.90;7.70;;;0.80;91.10;;;-0.95;87.54;98428.59;5043310;28;20494;-74
2022/04/11 00:41:19;;;;;;;8.80;7.77;;;0.80;91.50;;;-0.88;87.65;98439.53;5047049;28;20552;-74
2022/04/11 00:43:46;;;;;;;9.07;7.40;;;0.70;91.30;;;-1.08;87.58;98410.22;5049589;28;20531;-74
2022/04/11 00:46:14;;;;;;;11.97;6.50;;;0.70;91.20;;;-0.88;87.56;98439.53;5048919;28;20464;-74
2022/04/11 00:48:42;;;;;;;11.20;7.47;;;0.70;91.40;;;-0.92;87.33;98432.78;5052090;28;20457;-72
2022/04/11 00:51:13;;;;;;;9.20;7.03;;;0.70;91.20;;;-1.01;87.24;98429.13;5044453;28;20482;-74
2022/04/11 00:53:44;;;;;;;8.37;6.20;;;0.60;91.10;;;-1.03;87.38;98436.38;5057011;28;20551;-74
2022/04/11 00:56:14;;;;;;;7.90;7.20;;;0.60;91.20;;;-1.10;88.53;98435.22;5055356;28;20498;-75
2022/04/11 00:58:43;;;;;;;11.30;7.13;;;0.50;92.20;;;-1.18;89.29;98434.06;5049454;28;20593;-74
2022/04/11 01:01:10;;;;;;;8.77;7.37;;;0.50;92.60;;;-1.24;89.29;98429.28;5039620;28;20469;-73
2022/04/11 01:03:38;;;;;;;10.33;7.10;;;0.40;92.90;;;-1.25;89.53;98421.44;5063918;28;20462;-73
2022/04/11 01:06:06;;;;;;;10.43;7.57;;;0.40;92.80;;;-1.25;89.26;98427.59;5039793;28;20580;-77
2022/04/11 01:08:34;;;;;;;8.30;7.50;;;0.40;92.90;;;-1.25;88.99;98424.94;5048914;28;20571;-72
2022/04/11 01:11:03;;;;;;;8.50;7.00;;;0.40;93.20;;;-1.24;89.56;98428.44;5040572;28;20465;-74
2022/04/11 01:13:31;;;;;;;7.87;7.13;;;0.40;93.30;;;-1.41;89.75;98411.31;5045855;28;20457;-75
2022/04/11 01:16:01;;;;;;;8.03;7.23;;;0.30;93.70;;;-1.40;89.89;98426.25;5044771;28;20472;-74
2022/04/11 01:18:29;;;;;;;10.17;7.43;;;0.30;94.70;;;-1.45;90.76;98416.03;5037256;28;20512;-73
2022/04/11 01:20:56;;;;;;;11.23;7.73;;;0.30;94.50;;;-1.66;89.91;98374.47;5050752;28;20472;-71
2022/04/11 01:23:24;;;;;;;9.67;7.23;;;0.30;94.70;;;-1.52;90.71;98409.53;5039820;28;20548;-76
2022/04/11 01:25:52;;;;;;;12.73;8.03;;;0.20;95.20;;;-1.57;91.03;98416.06;5034940;28;20566;-74
2022/04/11 01:28:20;;;;;;;9.43;7.20;;;0.20;95.20;;;-1.47;90.49;98418.78;5049058;28;20514;-74
2022/04/11 01:30:48;;;;;;;10.67;7.97;;;0.20;95.50;;;-1.48;91.06;98419.75;5038933;28;20544;-72
2022/04/11 01:33:20;;;;;;;9.90;8.07;;;0.20;96.00;;;-1.49;91.25;98415.44;5039021;28;21262;-74
2022/04/11 01:35:48;;;;;;;11.20;8.07;;;0.10;95.70;;;-1.50;91.02;98419.06;5039004;28;20462;-74
2022/04/11 01:38:14;;;;;;;8.27;7.40;;;0.20;95.10;;;-1.48;90.92;98419.75;5039242;28;20449;-74
2022/04/11 01:40:51;;;;;;;8.00;7.30;;;0.20;95.60;;;-1.55;90.95;98420.41;5039505;28;20461;-74
2022/04/11 01:43:18;;;;;;;10.00;7.50;;;0.10;94.60;;;-1.63;91.40;98413.09;5042056;28;20478;-74
2022/04/11 01:45:45;;;;;;;10.60;8.03;;;0.00;96.30;;;-1.59;91.38;98414.53;5037233;28;20481;-74
2022/04/11 01:48:12;;;;;;;13.20;7.57;;;0.00;96.70;;;-1.60;91.36;98416.34;5044108;28;20556;-73
2022/04/11 01:50:39;;;;;;;9.77;8.10;;;0.00;96.80;;;-1.60;91.40;98418.13;5057271;28;21057;-74
2022/04/11 01:53:09;;;;;;;8.70;7.80;;;0.00;96.90;;;-1.62;91.55;98410.31;5040414;28;20463;-74
2022/04/11 01:55:36;;;;;;;9.30;7.77;;;0.00;96.80;;;-1.63;91.35;98407.78;5061375;28;20523;-76
2022/04/11 01:58:06;;;;;;;8.53;7.63;;;0.00;97.10;;;-1.67;91.73;98406.38;5047062;28;20454;-74
2022/04/11 02:00:34;;;;;;;11.77;7.77;;;0.00;96.70;;;-1.64;92.04;98401.66;5052482;28;20517;-74
2022/04/11 02:03:02;;;;;;;13.13;7.73;;;0.00;98.00;;;-1.62;91.77;98409.47;5047978;28;20448;-74
2022/04/11 02:05:30;;;;;;;9.37;7.70;;;0.00;97.10;;;-1.66;91.75;98408.06;5053680;28;20541;-73
2022/04/11 02:07:57;;;;;;;11.20;8.30;;;0.00;97.00;;;-1.63;91.86;98408.66;5045120;28;20852;-74
2022/04/11 02:10:25;;;;;;;10.17;8.37;;;0.00;97.20;;;-1.64;91.66;98406.09;5047545;28;20529;-75
2022/04/11 02:12:53;;;;;;;12.30;9.13;;;0.00;97.10;;;-1.72;91.85;98404.09;5040124;28;20473;-73
2022/04/11 02:15:22;;;;;;;11.87;8.67;;;0.00;97.40;;;-1.68;92.09;98410.00;5035206;28;20570;-74
2022/04/11 02:17:50;;;;;;;11.20;8.60;;;-0.10;97.90;;;-1.66;91.95;98416.84;5045882;28;20992;-73
2022/04/11 02:20:17;;;;;;;12.00;8.83;;;-0.10;98.40;;;-1.61;91.55;98405.84;5044972;28;20794;-73
2022/04/11 02:22:47;;;;;;;9.20;8.23;;;0.00;97.20;;;-2.14;91.45;98323.59;5044043;28;20882;-74
2022/04/11 02:25:14;;;;;;;10.33;8.30;;;-0.10;97.50;;;-1.64;91.55;98391.06;5042436;28;20839;-73
2022/04/11 02:27:41;;;;;;;11.10;8.50;;;0.00;97.80;;;-1.95;91.22;98360.97;5039863;28;21318;-73
2022/04/11 02:30:11;;;;;;;11.33;8.83;;;0.00;96.00;;;-1.71;91.82;98395.19;5037916;28;20449;-72
2022/04/11 02:32:40;;;;;;;8.27;7.47;;;-0.10;97.70;;;-1.66;91.66;98402.75;5042655;28;20468;-71
2022/04/11 02:35:08;;;;;;;9.57;8.03;;;-0.10;97.20;;;-1.72;91.45;98404.97;5035479;28;20476;-73
2022/04/11 02:37:36;;;;;;;9.83;8.27;;;-0.10;97.50;;;-1.68;91.72;98404.69;5054396;28;20869;-74
2022/04/11 02:40:05;;;;;;;12.47;8.40;;;-0.10;96.70;;;-1.82;91.88;98409.31;5043076;28;20965;-72
2022/04/11 02:42:32;;;;;;;8.40;7.60;;;-0.10;96.60;;;-1.77;91.62;98404.47;5040825;28;20466;-74
2022/04/11 02:44:59;;;;;;;8.87;7.30;;;-0.10;97.90;;;-1.81;91.96;98400.41;5033193;28;20457;-72
2022/04/11 02:47:26;;;;;;;9.23;8.10;;;-0.20;96.50;;;-1.78;91.31;98416.03;5042602;28;20543;-73
2022/04/11 02:49:55;;;;;;;9.30;7.93;;;-0.20;96.90;;;-1.83;91.40;98417.38;5039239;28;21047;-73
2022/04/11 02:52:22;;;;;;;10.03;7.83;;;-0.20;97.00;;;-1.87;91.92;98409.69;5040295;28;21002;-75
2022/04/11 02:54:49;;;;;;;12.10;8.40;;;-0.20;97.00;;;-1.94;92.26;98412.97;5037861;28;20453;-75
2022/04/11 02:57:16;;;;;;;9.13;8.20;;;-0.30;97.00;;;-1.91;91.91;98416.22;5042008;28;20546;-73
2022/04/11 02:59:43;;;;;;;12.80;7.53;;;-0.30;97.90;;;-2.04;92.36;98420.84;5039019;28;20465;-74
2022/04/11 03:02:10;;;;;;;8.47;7.60;;;-0.30;97.10;;;-2.08;92.76;98409.66;5042803;28;20511;-73
2022/04/11 03:04:37;;;;;;;9.40;8.50;;;-0.40;98.30;;;-2.03;92.84;98418.09;5044518;28;20492;-74
2022/04/11 03:07:06;;;;;;;9.43;7.90;;;-0.40;99.90;;;-2.03;92.92;98406.63;5047506;28;21218;-75
2022/04/11 03:09:33;;;;;;;9.70;7.97;;;-0.40;99.90;;;-2.06;92.87;98410.38;5049228;28;20460;-74
2022/04/11 03:12:00;;;;;;;10.73;8.10;;;-0.40;99.80;;;-1.99;93.01;98413.34;5048892;28;20547;-75
2022/04/11 03:14:27;;;;;;;12.33;8.70;;;-0.40;99.90;;;-2.04;92.88;98410.25;5064970;28;20459;-73
2022/04/11 03:16:54;;;;;;;11.53;8.40;;;-0.40;99.60;;;-1.95;92.67;98409.50;5054094;28;20462;-73
2022/04/11 03:19:21;;;;;;;10.40;8.33;;;-0.40;99.90;;;-2.01;92.38;98402.91;5059733;28;20455;-72
2022/04/11 03:21:49;;;;;;;9.10;7.90;;;-0.40;99.00;;;-1.99;92.78;98408.06;5055609;28;20476;-74
2022/04/11 03:24:17;;;;;;;13.90;8.97;;;-0.40;98.70;;;-2.18;92.83;98382.25;5050025;28;20452;-75
2022/04/11 03:26:45;;;;;;;10.33;9.17;;;-0.40;98.80;;;-2.10;93.06;98395.69;5049588;28;20475;-73
2022/04/11 03:29:11;;;;;;;10.17;8.77;;;-0.40;99.40;;;-2.06;93.37;98394.47;5046887;28;20530;-74
2022/04/11 03:31:38;;;;;;;12.10;9.47;;;-0.40;99.90;;;-2.05;92.87;98396.16;5041712;28;20479;-74
2022/04/11 03:34:06;;;;;;;9.53;8.60;;;-0.40;99.90;;;-2.10;92.97;98401.00;5047940;28;20501;-75
2022/04/11 03:36:32;;;;;;;12.23;8.87;;;-0.40;99.60;;;-2.03;93.09;98386.31;5056178;28;20554;-77
2022/04/11 03:38:59;;;;;;;11.03;9.30;;;-0.40;99.80;;;-1.94;92.79;98391.78;5052621;28;20460;-72
2022/04/11 03:41:28;;;;;;;10.83;8.70;;;-0.40;99.90;;;-2.03;92.42;98381.00;5048828;28;20482;-73
2022/04/11 03:43:55;;;;;;;12.20;9.00;;;-0.40;99.10;;;-2.19;93.06;98364.69;5048042;28;20465;-73
2022/04/11 03:46:22;;;;;;;9.80;8.40;;;-0.40;99.60;;;-2.04;93.01;98374.03;5043378;28;20558;-75
2022/04/11 03:48:49;;;;;;;11.70;8.83;;;-0.40;99.60;;;-2.07;93.03;98368.13;5052338;28;20500;-73
2022/04/11 03:51:16;;;;;;;14.37;9.17;;;-0.40;99.10;;;-2.11;93.15;98372.84;5050703;28;20471;-73
2022/04/11 03:53:43;;;;;;;10.00;8.70;;;-0.40;99.10;;;-2.31;93.39;98343.53;5049092;28;20496;-72
2022/04/11 03:56:10;;;;;;;12.90;9.20;;;-0.40;99.70;;;-2.16;93.50;98364.44;5052955;28;20460;-74
2022/04/11 03:58:38;;;;;;;9.77;8.30;;;-0.40;99.90;;;-2.26;93.59;98360.84;5040637;28;20465;-74
2022/04/11 04:01:05;;;;;;;11.40;8.10;;;-0.50;99.50;;;-2.61;93.93;98321.25;5037223;28;20474;-75
2022/04/11 04:03:32;;;;;;;11.60;9.40;;;-0.60;99.90;;;-2.42;94.12;98339.13;5051392;28;20563;-76
2022/04/11 04:05:59;;;;;;;8.50;7.70;;;-0.50;99.90;;;-2.36;94.21;98364.25;5046820;28;20516;-74
2022/04/11 04:08:26;;;;;;;10.63;9.00;;;-0.50;99.90;;;-2.37;94.25;98362.56;5050228;28;20552;-74
2022/04/11 04:10:53;;;;;;;10.20;9.20;;;-0.60;99.90;;;-2.32;94.59;98365.69;5047957;28;20516;-73
2022/04/11 04:13:20;;;;;;;11.27;10.10;;;-0.60;99.90;;;-2.26;94.58;98368.78;5049101;28;20586;-72
2022/04/11 04:15:50;;;;;;;11.43;8.37;;;-0.60;99.90;;;-2.69;94.39;98289.28;5056061;28;20591;-74
2022/04/11 04:18:18;;;;;;;11.40;8.40;;;-0.50;99.90;;;-2.22;93.58;98370.22;5056385;28;20464;-74
2022/04/11 04:20:45;;;;;;;9.70;8.70;;;-0.50;99.90;;;-2.34;93.80;98357.03;5042738;28;20453;-76
2022/04/11 04:23:11;;;;;;;13.93;8.60;;;-0.50;99.90;;;-2.26;93.63;98356.41;5061000;28;20524;-75
2022/04/11 04:25:39;;;;;;;15.03;9.23;;;-0.50;99.90;;;-2.25;94.02;98366.03;5046980;28;20535;-74
2022/04/11 04:28:06;;;;;;;10.07;8.60;;;-0.50;99.90;;;-2.24;93.71;98357.13;5046773;28;20473;-75
2022/04/11 04:30:33;;;;;;;9.60;8.43;;;-0.50;99.90;;;-2.18;93.62;98353.13;5051142;28;20827;-74
2022/04/11 04:33:01;;;;;;;11.00;9.90;;;-0.50;99.90;;;-2.21;93.28;98353.38;5045504;28;20564;-72
2022/04/11 04:35:29;;;;;;;11.30;9.43;;;-0.50;99.90;;;-2.16;93.40;98352.03;5039428;28;20472;-73
2022/04/11 04:37:56;;;;;;;12.73;10.17;;;-0.50;99.90;;;-2.26;93.59;98347.63;5046739;28;20548;-73
2022/04/11 04:40:23;;;;;;;12.20;9.20;;;-0.50;99.90;;;-2.07;92.87;98334.53;5042721;28;20515;-76
2022/04/11 04:42:51;;;;;;;11.57;8.67;;;-0.40;99.90;;;-2.04;92.76;98336.97;5045098;28;20487;-75
2022/04/11 04:45:19;;;;;;;12.50;9.23;;;-0.40;98.80;;;-1.92;92.30;98350.13;5042112;28;20460;-74
2022/04/11 04:47:47;;;;;;;10.17;8.80;;;-0.30;98.60;;;-1.89;92.48;98345.41;5048463;28;20465;-81
2022/04/11 04:50:15;;;;;;;11.00;8.90;;;-0.20;97.00;;;-1.66;91.90;98349.75;5050173;28;20460;-78
2022/04/11 04:52:43;;;;;;;12.97;8.57;;;0.00;99.40;;;-1.27;90.15;98327.94;5044220;28;20481;-81
2022/04/11 04:55:10;;;;;;;11.97;8.10;;;0.40;96.10;;;-0.69;89.08;98345.88;5041382;28;20494;-75
2022/04/11 04:57:37;;;;;;;15.10;8.77;;;1.00;93.40;;;-0.44;86.17;98336.59;5043096;28;20451;-79
2022/04/11 05:00:07;;;;;;;11.10;8.37;;;1.40;87.30;;;0.02;83.31;98330.75;5047242;28;20999;-76
2022/04/11 05:02:38;;;;;;;8.37;7.10;;;1.80;83.20;;;0.25;83.02;98339.25;5059342;28;20479;-77
2022/04/11 05:05:08;;;;;;;7.50;6.70;;;2.10;82.10;;;0.20;81.24;98333.53;5053804;28;20485;-79
2022/04/11 05:07:36;;;;;;;8.50;7.03;;;2.30;78.30;;;0.08;82.38;98330.19;5059119;28;20479;-77
2022/04/11 05:10:06;;;;;;;9.30;7.50;;;2.10;79.20;;;0.06;82.43;98312.69;5049923;28;20453;-79
2022/04/11 05:12:41;;;;;;;10.37;7.93;;;2.10;78.40;;;0.24;81.00;98329.63;5050146;28;20531;-81
2022/04/11 05:15:09;;;;;;;8.10;7.30;;;2.40;77.80;;;0.26;80.75;98314.38;5051304;28;20459;-76
2022/04/11 05:17:37;;;;;;;9.73;7.33;;;2.40;77.40;;;0.69;80.32;98332.59;5056901;28;20548;-75
2022/04/11 05:20:07;;;;;;;7.67;6.87;;;2.50;77.70;;;-0.02;79.79;98197.34;5048709;28;20480;-78
2022/04/11 05:22:38;;;;;;;9.70;7.47;;;2.50;77.50;;;0.88;78.57;98326.38;5059413;28;20486;-79
2022/04/11 05:25:07;;;;;;;10.17;8.33;;;2.70;77.20;;;0.81;78.19;98326.09;5058882;28;20564;-80
2022/04/11 05:27:35;;;;;;;8.20;7.10;;;2.60;76.70;;;0.17;78.70;98267.38;5063105;28;20476;-77
2022/04/11 05:30:05;;;;;;;9.53;8.53;;;2.60;76.60;;;0.02;80.61;98319.28;5057261;28;20511;-78
2022/04/11 05:32:33;;;;;;;9.47;6.83;;;2.20;76.90;;;-0.03;81.10;98328.50;5059513;28;20481;-82
2022/04/11 05:35:01;;;;;;;9.87;7.57;;;2.00;77.60;;;-0.36;81.50;98290.75;5054520;28;20511;-78
2022/04/11 05:37:28;;;;;;;8.70;7.80;;;1.80;78.20;;;0.15;81.60;98325.13;5059532;28;20453;-83
2022/04/11 05:39:59;;;;;;;56.47;13.60;;;1.90;78.90;;;0.06;81.96;98316.19;5054887;28;20848;-83
2022/04/11 05:42:26;;;;;;;19.90;7.93;;;1.80;80.10;;;0.12;80.61;98328.09;5059099;28;20564;-81
2022/04/11 05:44:53;;;;;;;13.10;8.53;;;1.80;79.30;;;0.22;80.79;98320.91;5048422;28;20469;-80
2022/04/11 05:47:20;;;;;;;85.83;19.53;;;1.90;79.90;;;-0.09;81.62;98329.06;5071313;28;20462;-78
2022/04/11 05:49:48;;;;;;;57.77;17.60;;;1.70;79.50;;;-0.01;81.84;98315.91;5060725;28;20477;-78
2022/04/11 05:52:16;;;;;;;12.57;9.23;;;1.70;81.10;;;0.38;80.37;98324.81;5059226;28;20491;-82
2022/04/11 05:54:44;;;;;;;17.60;9.50;;;1.80;80.70;;;0.58;79.53;98322.13;5056745;28;20449;-82
2022/04/11 05:57:12;;;;;;;10.27;9.27;;;2.10;80.40;;;0.51;79.79;98324.53;5077831;28;20466;-85
2022/04/11 05:59:41;;;;;;;11.93;7.60;;;2.10;79.20;;;0.35;80.20;98335.75;5056853;28;20464;-79
2022/04/11 06:02:10;;;;;;;10.10;8.23;;;2.10;79.10;;;0.10;81.71;98343.34;5054958;28;20791;-82
2022/04/11 06:04:37;;;;;;;8.87;7.80;;;1.90;79.60;;;0.11;81.51;98337.88;5053977;28;20525;-85
2022/04/11 06:07:05;;;;;;;12.13;8.73;;;1.80;79.90;;;0.14;81.76;98339.41;5051619;28;20860;-72
2022/04/11 06:09:33;;;;;;;9.87;8.70;;;1.80;80.30;;;0.10;82.20;98340.69;5053630;28;20465;-79
2022/04/11 06:12:00;;;;;;;17.40;9.13;;;1.80;81.00;;;0.16;82.23;98342.75;5051153;28;20499;-81
2022/04/11 06:14:29;;;;;;;11.57;8.70;;;1.80;81.20;;;0.66;80.74;98343.50;5047658;28;20908;-79
2022/04/11 06:16:57;;;;;;;12.33;8.97;;;2.10;81.00;;;0.60;80.12;98355.56;5049821;28;20457;-80
2022/04/11 06:19:24;;;;;;;12.07;9.93;;;2.30;79.30;;;0.74;80.24;98340.97;5049652;28;20442;-74
2022/04/11 06:21:51;;;;;;;11.23;9.13;;;2.30;79.90;;;1.11;78.29;98323.34;5050417;28;20878;-78
2022/04/11 06:24:18;;;;;;;12.35;10.25;;;2.70;79.00;;;1.50;77.57;98355.06;5041460;28;20616;-80
2022/04/11 06:26:45;;;;;;;10.20;8.97;;;2.90;78.20;;;1.51;76.59;98363.91;5042379;28;20214;-75
2022/04/11 06:29:13;;;;;;;11.00;9.90;;;3.10;77.10;;;1.54;76.58;98355.63;5047475;28;20468;-76
2022/04/11 06:31:42;;;;;;;12.87;9.40;;;3.20;76.60;;;1.45;76.56;98313.94;5055808;28;20570;-81
2022/04/11 06:34:09;;;;;;;12.43;9.47;;;3.30;76.50;;;1.94;76.36;98369.50;5057863;28;20485;-76
2022/04/11 06:36:36;;;;;;;12.70;8.60;;;3.50;76.50;;;2.24;74.79;98349.66;5058207;28;20465;-82
2022/04/11 06:39:03;;;;;;;13.03;9.10;;;3.80;75.70;;;2.23;74.51;98353.31;5064413;28;20511;-80
2022/04/11 06:41:31;;;;;;;9.73;8.73;;;3.90;75.30;;;2.64;73.92;98370.59;5062909;28;20470;-81
2022/04/11 06:43:58;;;;;;;11.30;9.10;;;4.10;75.50;;;2.98;71.73;98367.16;5057407;28;20460;-74
2022/04/11 06:46:26;;;;;;;9.70;8.00;;;4.30;74.10;;;2.96;72.81;98371.84;5068135;28;20456;-80
2022/04/11 06:48:54;;;;;;;10.13;9.10;;;4.40;74.10;;;2.89;73.01;98368.09;5054794;28;20525;-84
2022/04/11 06:51:21;;;;;;;9.67;8.77;;;4.50;73.90;;;3.24;71.61;98377.81;5054468;28;20449;-80
2022/04/11 06:53:50;;;;;;;9.77;8.77;;;4.70;73.60;;;3.26;71.09;98374.97;5058909;28;20480;-83
2022/04/11 06:56:17;;;;;;;13.60;10.00;;;4.70;73.30;;;2.64;71.24;98269.22;5056840;28;20451;-84
2022/04/11 06:58:44;;;;;;;13.90;9.30;;;4.80;73.30;;;3.25;71.00;98373.28;5070292;28;20827;-80
2022/04/11 07:01:11;;;;;;;10.30;8.80;;;4.80;72.90;;;3.37;70.87;98372.03;5066310;28;20858;-79
2022/04/11 07:03:38;;;;;;;14.43;9.40;;;4.80;72.90;;;3.34;71.89;98367.00;5069535;28;20529;-76
2022/04/11 07:06:07;;;;;;;10.77;9.53;;;4.90;73.40;;;3.56;70.67;98375.44;5062038;28;20534;-83
2022/04/11 07:08:34;;;;;;;11.37;9.70;;;5.00;72.90;;;3.45;71.39;98367.72;5068620;28;20471;-79
2022/04/11 07:11:02;;;;;;;12.27;9.40;;;5.00;72.90;;;3.69;70.20;98365.13;5068899;28;20472;-80
2022/04/11 07:13:29;;;;;;;12.80;11.40;;;5.20;72.70;;;3.62;71.13;98374.78;5055352;28;20832;-74
2022/04/11 07:15:57;;;;;;;13.57;10.13;;;5.20;73.00;;;3.72;70.57;98369.31;5055017;28;20962;-75
2022/04/11 07:18:27;;;;;;;10.67;9.37;;;5.20;72.50;;;3.67;70.09;98351.09;5051345;28;20442;-74
2022/04/11 07:20:54;;;;;;;11.03;9.30;;;5.20;72.20;;;3.89;69.37;98362.19;5047476;28;20546;-74
2022/04/11 07:23:23;;;;;;;11.47;10.27;;;5.30;72.10;;;3.81;69.00;98360.31;5049523;28;20577;-86
2022/04/11 07:25:51;;;;;;;9.87;8.53;;;5.40;71.60;;;4.07;69.30;98361.19;5064475;28;20468;-82
2022/04/11 07:28:20;;;;;;;10.40;9.13;;;5.50;72.10;;;4.30;69.23;98355.19;5053247;28;20458;-82
2022/04/11 07:30:47;;;;;;;13.10;9.37;;;5.70;71.80;;;4.48;68.52;98357.69;5055310;28;20460;-83
2022/04/11 07:33:15;;;;;;;9.63;8.73;;;5.80;71.60;;;4.41;68.18;98352.19;5056156;28;20479;-82
2022/04/11 07:35:42;;;;;;;10.40;8.50;;;5.90;71.10;;;4.59;67.72;98354.69;5066688;28;20461;-80
2022/04/11 07:38:11;;;;;;;11.70;8.80;;;6.00;71.00;;;4.49;68.20;98349.53;5054724;28;20470;-76
2022/04/11 07:40:39;;;;;;;12.40;8.70;;;6.00;70.90;;;4.51;67.69;98344.84;5052429;28;20482;-79
2022/04/11 07:43:07;;;;;;;14.23;9.13;;;6.00;70.90;;;4.54;67.40;98357.03;5053129;28;20466;-82
2022/04/11 07:45:34;;;;;;;11.90;8.40;;;6.00;70.30;;;4.47;67.75;98346.16;5044568;28;20828;-79
2022/04/11 07:48:01;;;;;;;9.87;8.83;;;5.90;70.30;;;4.23;67.81;98307.72;5053244;28;20468;-83
2022/04/11 07:50:28;;;;;;;10.63;9.07;;;6.00;70.30;;;4.54;67.81;98346.31;5050643;28;20469;-79
2022/04/11 07:52:56;;;;;;;9.17;8.23;;;5.90;70.60;;;4.72;67.40;98343.47;5057302;28;20535;-82
2022/04/11 07:55:24;;;;;;;9.63;8.53;;;6.10;70.60;;;4.54;66.82;98328.44;5055473;28;20452;-83
2022/04/11 07:57:54;;;;;;;11.27;9.10;;;6.10;69.90;;;4.88;66.67;98341.75;5049103;28;20451;-85
2022/04/11 08:00:22;;;;;;;11.03;9.90;;;6.20;69.80;;;4.73;66.05;98286.22;5055553;28;20547;-82
2022/04/11 08:02:52;;;;;;;9.27;8.20;;;6.40;69.40;;;5.14;65.53;98338.81;5065046;28;20447;-80
2022/04/11 08:05:20;;;;;;;10.80;8.57;;;6.50;69.10;;;5.30;65.19;98340.63;5059013;28;20478;-82
2022/04/11 08:07:48;;;;;;;13.07;8.03;;;6.60;68.90;;;5.51;64.83;98336.50;5063095;28;20456;-86
2022/04/11 08:10:16;;;;;;;11.00;8.70;;;6.70;68.50;;;5.63;64.90;98320.88;5054632;28;20471;-82
2022/04/11 08:12:53;;;;;;;10.70;8.80;;;6.90;68.60;;;5.69;64.52;98330.91;5053038;28;20471;-78
2022/04/11 08:15:21;;;;;;;9.93;8.77;;;7.00;68.50;;;5.58;63.96;98325.91;5050229;28;20471;-86
2022/04/11 08:17:48;;;;;;;12.43;9.67;;;7.00;67.60;;;5.93;62.94;98337.13;5059020;28;20529;-81
2022/04/11 08:20:15;;;;;;;11.33;8.77;;;7.10;67.50;;;6.07;61.90;98316.78;5072446;28;20987;-81
2022/04/11 08:22:43;;;;;;;9.60;7.83;;;7.40;66.70;;;5.99;61.92;98316.78;5051391;28;20471;-78
2022/04/11 08:25:10;;;;;;;10.83;8.53;;;7.40;65.80;;;6.04;61.31;98315.28;5058314;28;20819;-81
2022/04/11 08:27:38;;;;;;;8.90;7.70;;;7.40;65.40;;;6.27;60.67;98314.44;5052251;28;20464;-80
2022/04/11 08:30:10;;;;;;;9.97;7.40;;;7.60;65.00;;;6.47;59.21;98320.16;5042892;28;20505;-76
2022/04/11 08:32:40;;;;;;;8.00;6.93;;;7.70;63.50;;;6.63;56.61;98312.94;5051387;28;20474;-76
2022/04/11 08:35:09;;;;;;;7.10;6.23;;;7.90;61.20;;;6.27;56.53;98271.50;5051752;28;20502;-79
2022/04/11 08:37:37;;;;;;;5.70;5.10;;;7.90;60.20;;;6.71;56.67;98299.44;5049412;28;20464;-77
2022/04/11 08:40:07;;;;;;;6.87;5.33;;;8.00;60.00;;;6.80;54.88;98308.22;5064087;28;20836;-78
2022/04/11 08:42:34;;;;;;;7.27;6.10;;;8.10;58.50;;;6.82;54.98;98305.38;5042128;28;20471;-76
2022/04/11 08:45:02;;;;;;;8.57;5.17;;;8.20;58.40;;;6.99;55.07;98306.84;5048547;28;20458;-78
2022/04/11 08:47:33;;;;;;;7.40;5.47;;;8.20;58.60;;;7.07;54.50;98304.09;5049567;28;20577;-77
2022/04/11 08:50:01;;;;;;;7.00;5.60;;;8.40;58.30;;;6.94;54.84;98295.84;5045447;28;20488;-76
2022/04/11 08:52:29;;;;;;;10.10;4.90;;;8.30;58.00;;;7.25;54.44;98292.13;5048560;28;20537;-77
2022/04/11 08:54:56;;;;;;;6.20;5.00;;;8.50;58.10;;;7.48;53.34;98293.84;5044201;28;20485;-80
2022/04/11 08:57:24;;;;;;;7.77;4.70;;;8.60;57.10;;;7.47;51.88;98294.84;5057987;28;20484;-78
2022/04/11 08:59:51;;;;;;;7.77;4.10;;;8.70;55.80;;;7.54;51.74;98285.03;5042069;28;20492;-80
2022/04/11 09:02:19;;;;;;;5.90;4.13;;;8.80;55.40;;;7.77;50.60;98281.31;5037476;28;20491;-81
2022/04/11 09:04:52;;;;;;;4.10;3.70;;;9.00;54.40;;;7.63;49.66;98277.69;5039979;28;20460;-78
2022/04/11 09:07:19;;;;;;;4.90;4.37;;;8.90;53.30;;;7.70;49.52;98275.88;5041851;28;21122;-77
2022/04/11 09:09:46;;;;;;;3.67;3.37;;;9.00;53.20;;;7.78;49.54;98283.84;5044226;28;20985;-78
2022/04/11 09:12:15;;;;;;;6.77;3.80;;;9.00;52.80;;;7.70;47.79;98280.44;5042053;28;20453;-82
2022/04/11 09:14:42;;;;;;;4.30;2.90;;;9.00;51.40;;;7.77;47.62;98266.03;5039882;28;20586;-76
2022/04/11 09:17:11;;;;;;;5.87;3.10;;;9.10;51.20;;;8.05;47.44;98288.66;5051015;28;20524;-80
2022/04/11 09:19:39;;;;;;;7.05;4.30;;;9.20;51.20;;;7.64;47.99;98210.22;5053251;28;20456;-77
2022/04/11 09:22:08;;;;;;;5.10;3.97;;;9.30;51.30;;;8.18;47.73;98282.53;5049162;28;20214;-80
2022/04/11 09:24:35;;;;;;;7.30;3.90;;;9.40;51.30;;;8.22;48.43;98284.66;5050209;28;20512;-80
2022/04/11 09:27:06;;;;;;;4.00;3.60;;;9.50;51.60;;;8.19;47.65;98268.91;5041030;28;20461;-84
2022/04/11 09:29:34;;;;;;;4.83;3.63;;;9.60;51.00;;;8.27;47.67;98267.13;5064506;28;20457;-80
2022/04/11 09:32:05;;;;;;;4.13;3.53;;;9.60;50.90;;;8.40;47.25;98269.88;5049348;28;20478;-84
2022/04/11 09:34:33;;;;;;;4.70;3.60;;;9.60;50.90;;;8.50;46.41;98272.28;5048597;28;20520;-77
2022/04/11 09:37:02;;;;;;;4.83;3.83;;;9.80;50.50;;;8.23;46.35;98212.81;5045979;28;20485;-85
2022/04/11 09:39:36;;;;;;;8.80;3.73;;;9.80;50.00;;;8.55;46.40;98266.31;5051289;28;20545;-79
2022/04/11 09:42:05;;;;;;;4.17;3.60;;;9.80;49.70;;;8.62;46.51;98267.19;5051922;28;20668;-88
2022/04/11 09:44:33;;;;;;;4.27;3.20;;;9.90;50.10;;;8.77;45.81;98259.84;5056795;28;20461;-76
2022/04/11 09:47:02;;;;;;;3.87;3.50;;;10.00;48.50;;;8.96;46.05;98268.22;5063290;28;20472;-83
2022/04/11 09:49:30;;;;;;;4.53;3.50;;;10.10;48.60;;;8.76;45.35;98258.16;5042718;28;20686;-80
2022/04/11 09:52:11;;;;;;;4.10;3.20;;;10.10;47.90;;;8.93;44.98;98268.63;5045738;28;20491;-86
2022/04/11 09:54:42;;;;;;;3.37;3.07;;;10.20;47.50;;;8.69;44.76;98265.38;5042435;28;20508;-83
2022/04/11 09:57:11;;;;;;;4.60;4.20;;;10.00;47.30;;;8.76;44.88;98257.31;5055649;28;20457;-83
2022/04/11 09:59:39;;;;;;;7.07;3.37;;;10.00;47.60;;;8.34;45.17;98158.44;5042877;28;20511;-86
2022/04/11 10:02:10;;;;;;;4.80;3.67;;;10.10;47.70;;;9.14;45.04;98269.56;5047185;28;20453;-84
2022/04/11 10:04:38;;;;;;;4.60;3.80;;;10.20;47.90;;;8.84;44.41;98254.47;5043876;28;20963;-84
2022/04/11 10:07:09;;;;;;;4.23;3.10;;;10.20;47.00;;;8.98;42.82;98251.88;5045635;28;20471;-81
2022/04/11 10:09:41;;;;;;;2.87;2.67;;;10.20;46.30;;;9.10;42.46;98241.34;5045399;28;20471;-85
2022/04/11 10:12:09;;;;;;;3.87;2.30;;;10.30;45.50;;;9.00;41.43;98237.13;5041390;28;20521;-85
2022/04/11 10:14:37;;;;;;;4.03;3.23;;;10.30;44.80;;;8.60;42.78;98231.56;5052978;28;20597;-79
2022/04/11 10:17:06;;;;;;;4.73;3.00;;;10.00;44.90;;;8.86;43.19;98208.47;5058831;28;20445;-85
2022/04/11 10:19:35;;;;;;;3.00;2.63;;;10.10;45.80;;;9.09;42.74;98229.72;5043271;28;20456;-78
2022/04/11 10:22:06;;;;;;;3.80;3.50;;;10.30;45.50;;;9.16;43.02;98243.22;5044174;28;20506;-84
2022/04/11 10:24:36;;;;;;;3.97;3.57;;;10.40;45.90;;;9.05;44.43;98223.91;5042464;28;20471;-79
2022/04/11 10:27:23;;;;;;;3.50;3.20;;;10.30;46.40;;;9.07;43.49;98219.16;5042729;28;20501;-84